Historique des Minis et Maxis de la station Météo
| Date | Température | Point de rosée | Humidité | Pression | ||||
|---|---|---|---|---|---|---|---|---|
| Mini | Maxi | Mini | Maxi | Mini | Maxi | Mini | Maxi | |
| 22/03/2018 23:57 | -3.06 C° | 3.18 C° | -10,00 C° | -9,99 C° | 44 % | 50 % | 1009.75 Hpa | 1021.36 Hpa |
| 21/03/2018 23:57 | -4.36 C° | 13.29 C° | -0,44 C° | -9,98 C° | 38 % | 46 % | 1020.2 Hpa | 1023.49 Hpa |
| 20/03/2018 23:57 | -5.70 C° | 8.70 C° | -10,01 C° | -9,99 C° | 41 % | 46 % | 1007.46 Hpa | 1020.3 Hpa |
| 19/03/2018 23:57 | -3.11 C° | 9.27 C° | -10,01 C° | -9,99 C° | 40 % | 46 % | 1002.26 Hpa | 1007.64 Hpa |
| 18/03/2018 23:57 | -3.93 C° | -1.63 C° | -11,75 C° | -13,86 C° | 46 % | 47 % | 996.08 Hpa | 1002.54 Hpa |
| 17/03/2018 23:57 | -3.24 C° | 4.64 C° | -10,01 C° | -9,99 C° | 45 % | 47 % | 994.02 Hpa | 998.07 Hpa |
| 16/03/2018 23:57 | 3.56 C° | 15.07 C° | -0,01 C° | 1,22 C° | 38 % | 50 % | 994.44 Hpa | 999.12 Hpa |
| 15/03/2018 23:57 | 2.82 C° | 7.11 C° | -3,85 C° | -8,24 C° | 42 % | 48 % | 990.58 Hpa | 998.63 Hpa |
| 14/03/2018 23:57 | 2.31 C° | 16.23 C° | -0,01 C° | 1,52 C° | 37 % | 46 % | 998.58 Hpa | 1009.58 Hpa |
| 13/03/2018 23:57 | 4.89 C° | 7.70 C° | -3,80 C° | -6,35 C° | 43 % | 46 % | 997.03 Hpa | 1009.11 Hpa |
| 12/03/2018 23:57 | 7.47 C° | 13.27 C° | -0,05 C° | 0,30 C° | 40 % | 46 % | 990.34 Hpa | 997.18 Hpa |
| 11/03/2018 23:57 | 7.58 C° | 12.16 C° | -0,00 C° | 0,20 C° | 41 % | 45 % | 990.6 Hpa | 998.4 Hpa |
| 10/03/2018 23:57 | 9.13 C° | 11.53 C° | -0,77 C° | -3,10 C° | 41 % | 44 % | 998.35 Hpa | 1001.11 Hpa |
| 09/03/2018 23:57 | 3.13 C° | 9.27 C° | -2,64 C° | -7,66 C° | 42 % | 45 % | 1001.02 Hpa | 1005.11 Hpa |
| 08/03/2018 23:57 | 0.77 C° | 13.57 C° | -0,18 C° | -9,54 C° | 38 % | 47 % | 997.85 Hpa | 1003.87 Hpa |
| 07/03/2018 23:57 | 2.07 C° | 8.23 C° | -3,61 C° | -8,39 C° | 42 % | 47 % | 989.66 Hpa | 1000.13 Hpa |
| 06/03/2018 23:57 | 0.75 C° | 8.78 C° | -3,43 C° | -9,84 C° | 42 % | 46 % | 987.58 Hpa | 990.1 Hpa |
| 05/03/2018 23:57 | 2.00 C° | 17.20 C° | -0,01 C° | 2,39 C° | 37 % | 49 % | 988.18 Hpa | 994.63 Hpa |
| 04/03/2018 23:57 | 0.18 C° | 10.57 C° | -1,81 C° | -9,18 C° | 41 % | 58 % | 990.08 Hpa | 996.19 Hpa |
| 03/03/2018 23:57 | -3.63 C° | 3.10 C° | -10,00 C° | -9,99 C° | 45 % | 49 % | 990.91 Hpa | 995.38 Hpa |